Terminal Aerodrome Forecast
Issued by NWS

Current Version | Previous Version | Text Only | Print | Product List | Glossary On
Versions: 1 2 3 4 5 6 7 8 9 10 11 12 13
000
FTUS41 KPHI 272326
TAFPNE
TAF
KPNE 272326Z 2800/2824 VRB03KT P6SM FEW060
     FM281200 04006KT P6SM SCT030
     FM281500 07008KT P6SM BKN040
     FM281800 08010KT P6SM BKN025
     FM282300 07012KT P6SM VCSH OVC015=

USA.gov is the U.S. government's official web portal to all federal, state and local government web resources and services.